Time;durP1;ratioP1;P1;durP2;ratioP2;P2;SDS_P1;SDS_P2;PMS_P1;PMS_P2;Temp;Humidity;BMP_temperature;BMP_pressure;BME280_temperature;BME280_humidity;BME280_pressure;Samples;Min_cycle;Max_cycle;Signal;HPM_P1;HPM_P2
2023/08/22 00:00:03;;;;;;;;;1.00;1.00;;;;;;;;5023854;28;45150;-96
2023/08/22 00:02:32;;;;;;;;;2.00;1.00;;;;;;;;5028491;28;45406;-96
2023/08/22 00:04:59;;;;;;;;;2.67;2.67;;;;;;;;4999414;28;46101;-96
2023/08/22 00:07:26;;;;;;;;;2.00;2.00;;;;;;;;5014922;28;45254;-96
2023/08/22 00:09:52;;;;;;;;;1.00;1.00;;;;;;;;5023723;28;45530;-96
2023/08/22 00:12:18;;;;;;;;;1.33;1.33;;;;;;;;5005173;28;104489;-96
2023/08/22 00:14:44;;;;;;;;;1.67;1.67;;;;;;;;5020929;28;27840;-96
2023/08/22 00:17:10;;;;;;;;;2.00;2.00;;;;;;;;5001822;28;45399;-96
2023/08/22 00:19:38;;;;;;;;;0.00;0.00;;;;;;;;5033326;28;45579;-96
2023/08/22 00:22:04;;;;;;;;;4.00;4.00;;;;;;;;5001199;28;47106;-96
2023/08/22 00:24:30;;;;;;;;;3.00;3.00;;;;;;;;5015284;28;45283;-97
2023/08/22 00:26:56;;;;;;;;;2.67;2.67;;;;;;;;5015930;28;45253;-97
2023/08/22 00:29:21;;;;;;;;;2.67;2.67;;;;;;;;5006266;28;45274;-96
2023/08/22 00:31:49;;;;;;;;;4.67;4.67;;;;;;;;4999771;28;45135;-96
2023/08/22 00:34:15;;;;;;;;;4.00;4.00;;;;;;;;5013019;28;45402;-96
2023/08/22 00:36:42;;;;;;;;;9.00;7.33;;;;;;;;4994360;28;45580;-96
2023/08/22 00:39:07;;;;;;;;;3.67;3.67;;;;;;;;4995617;28;45255;-96
2023/08/22 00:41:36;;;;;;;;;5.67;5.67;;;;;;;;5013076;28;45708;-96
2023/08/22 00:44:02;;;;;;;;;5.00;4.67;;;;;;;;4997042;28;45243;-97
2023/08/22 00:46:34;;;;;;;;;3.67;3.67;;;;;;;;4992295;28;45418;-97
2023/08/22 00:49:04;;;;;;;;;3.00;3.00;;;;;;;;5003593;28;45415;-97
2023/08/22 00:51:30;;;;;;;;;3.67;3.67;;;;;;;;4987549;28;47142;-97
2023/08/22 00:53:56;;;;;;;;;2.33;2.33;;;;;;;;4993228;28;45463;-97
2023/08/22 00:56:22;;;;;;;;;3.00;3.00;;;;;;;;5001498;28;45422;-96
2023/08/22 00:58:50;;;;;;;;;3.00;3.00;;;;;;;;4987542;28;45200;-96
2023/08/22 01:01:15;;;;;;;;;2.00;2.00;;;;;;;;4981062;28;46563;-97
2023/08/22 01:03:45;;;;;;;;;2.00;2.00;;;;;;;;4998198;28;45138;-96
2023/08/22 01:06:18;;;;;;;;;5.00;5.00;;;;;;;;5006290;28;45356;-96
2023/08/22 01:08:49;;;;;;;;;3.67;3.67;;;;;;;;4989846;28;45641;-97
2023/08/22 01:11:22;;;;;;;;;5.67;5.67;;;;;;;;4995088;28;47298;-96
2023/08/22 01:13:51;;;;;;;;;7.67;4.67;;;;;;;;5013301;28;44769;-96
2023/08/22 01:16:17;;;;;;;;;3.00;3.00;;;;;;;;4999264;28;45199;-96
2023/08/22 01:18:53;;;;;;;;;5.00;5.00;;;;;;;;4993392;28;45641;-96
2023/08/22 01:21:22;;;;;;;;;3.33;3.33;;;;;;;;4998939;28;47216;-96
2023/08/22 01:23:47;;;;;;;;;5.67;5.67;;;;;;;;4999924;28;45229;-97
2023/08/22 01:26:17;;;;;;;;;4.00;4.00;;;;;;;;4998214;28;44608;-96
2023/08/22 01:28:55;;;;;;;;;3.67;3.67;;;;;;;;5001048;28;45388;-96
2023/08/22 01:31:36;;;;;;;;;3.67;3.67;;;;;;;;5007732;28;46733;-96
2023/08/22 01:34:14;;;;;;;;;2.67;2.67;;;;;;;;5026655;28;45163;-96
2023/08/22 01:36:41;;;;;;;;;2.33;2.33;;;;;;;;5007342;28;45249;-96
2023/08/22 01:39:10;;;;;;;;;4.00;4.00;;;;;;;;5030220;28;45431;-96
2023/08/22 01:41:36;;;;;;;;;4.67;4.67;;;;;;;;4993845;28;47095;-96
2023/08/22 01:44:03;;;;;;;;;5.33;4.33;;;;;;;;5006735;28;45292;-96
2023/08/22 01:46:28;;;;;;;;;4.00;4.00;;;;;;;;5010841;28;45451;-97
2023/08/22 01:48:53;;;;;;;;;3.33;3.33;;;;;;;;5034153;28;44807;-97
2023/08/22 01:51:21;;;;;;;;;4.00;4.00;;;;;;;;5034863;28;45687;-97
2023/08/22 01:53:48;;;;;;;;;4.00;4.00;;;;;;;;5013715;28;45449;-97
2023/08/22 01:56:14;;;;;;;;;5.00;5.00;;;;;;;;5032792;28;45297;-96
2023/08/22 01:58:39;;;;;;;;;4.67;4.67;;;;;;;;5048110;28;45243;-96
2023/08/22 02:01:10;;;;;;;;;4.00;4.00;;;;;;;;5017161;28;46910;-97
2023/08/22 02:03:36;;;;;;;;;4.33;4.33;;;;;;;;4985370;28;45415;-97
2023/08/22 02:06:01;;;;;;;;;5.33;5.33;;;;;;;;5026545;28;45256;-96
2023/08/22 02:08:37;;;;;;;;;5.67;5.67;;;;;;;;5006731;28;44887;-96
2023/08/22 02:11:03;;;;;;;;;3.67;3.67;;;;;;;;5011922;28;47581;-96
2023/08/22 02:13:28;;;;;;;;;2.33;2.33;;;;;;;;5025791;28;45522;-96
2023/08/22 02:15:54;;;;;;;;;4.33;4.33;;;;;;;;5010914;28;45598;-96
2023/08/22 02:18:19;;;;;;;;;3.67;3.67;;;;;;;;5030613;28;45388;-96
2023/08/22 02:20:44;;;;;;;;;3.67;3.67;;;;;;;;5013476;28;46952;-96
2023/08/22 02:23:10;;;;;;;;;3.67;3.67;;;;;;;;5030337;28;45407;-96
2023/08/22 02:25:41;;;;;;;;;3.67;3.67;;;;;;;;5013477;28;45426;-96
2023/08/22 02:28:06;;;;;;;;;3.00;3.00;;;;;;;;5031840;28;45531;-96
2023/08/22 02:30:33;;;;;;;;;6.00;6.00;;;;;;;;4995813;28;48558;-96
2023/08/22 02:32:58;;;;;;;;;4.00;4.00;;;;;;;;5029652;28;45162;-96
2023/08/22 02:35:26;;;;;;;;;4.00;4.00;;;;;;;;5014248;28;46053;-96
2023/08/22 02:37:52;;;;;;;;;6.33;6.33;;;;;;;;5013550;28;45241;-97
2023/08/22 02:40:22;;;;;;;;;6.33;6.33;;;;;;;;5014934;28;46405;-96
2023/08/22 02:42:49;;;;;;;;;5.33;5.33;;;;;;;;5027175;28;45455;-96
2023/08/22 02:45:15;;;;;;;;;5.67;5.67;;;;;;;;5015041;28;45342;-96
2023/08/22 02:47:42;;;;;;;;;6.00;6.00;;;;;;;;5029138;28;45134;-96
2023/08/22 02:50:10;;;;;;;;;5.00;5.00;;;;;;;;5028494;28;45484;-96
2023/08/22 02:52:36;;;;;;;;;9.00;9.00;;;;;;;;5028880;28;45300;-97
2023/08/22 02:55:01;;;;;;;;;5.00;5.00;;;;;;;;5029038;28;45430;-96
2023/08/22 02:57:29;;;;;;;;;5.33;5.33;;;;;;;;5030654;28;45582;-96
2023/08/22 02:59:54;;;;;;;;;5.67;4.00;;;;;;;;5021474;28;45501;-96
2023/08/22 03:02:20;;;;;;;;;8.00;8.00;;;;;;;;5009943;28;45467;-96
2023/08/22 03:04:47;;;;;;;;;7.33;7.33;;;;;;;;4995786;28;45348;-96
2023/08/22 03:07:20;;;;;;;;;3.67;3.67;;;;;;;;5011800;28;45604;-96
2023/08/22 03:09:48;;;;;;;;;3.00;3.00;;;;;;;;5010783;28;46767;-96
2023/08/22 03:12:13;;;;;;;;;6.33;6.33;;;;;;;;5029125;28;45380;-96
2023/08/22 03:14:39;;;;;;;;;3.67;3.67;;;;;;;;5027484;28;45211;-96
2023/08/22 03:17:06;;;;;;;;;5.67;5.67;;;;;;;;5016349;28;45676;-96
2023/08/22 03:19:32;;;;;;;;;4.00;4.00;;;;;;;;5026903;28;45588;-96
2023/08/22 03:21:57;;;;;;;;;2.67;2.67;;;;;;;;5012262;28;44868;-96
2023/08/22 03:24:23;;;;;;;;;3.67;3.67;;;;;;;;5027207;28;46385;-96
2023/08/22 03:26:48;;;;;;;;;6.67;4.67;;;;;;;;5030183;28;45385;-96
2023/08/22 03:29:14;;;;;;;;;3.00;3.00;;;;;;;;5010130;28;47753;-96
2023/08/22 03:31:39;;;;;;;;;7.67;7.67;;;;;;;;5009274;28;45395;-96
2023/08/22 03:34:04;;;;;;;;;5.00;5.00;;;;;;;;5009909;28;45418;-96
2023/08/22 03:36:31;;;;;;;;;7.00;7.00;;;;;;;;5011135;28;45768;-96
2023/08/22 03:38:57;;;;;;;;;7.67;7.67;;;;;;;;5025883;28;46221;-97
2023/08/22 03:41:22;;;;;;;;;6.67;6.67;;;;;;;;5026112;28;45437;-96
2023/08/22 03:43:47;;;;;;;;;4.00;4.00;;;;;;;;5026320;28;45666;-96
2023/08/22 03:46:15;;;;;;;;;1.67;1.67;;;;;;;;5028423;28;45366;-96
2023/08/22 03:48:41;;;;;;;;;4.67;4.67;;;;;;;;5029606;28;46417;-97
2023/08/22 03:51:06;;;;;;;;;4.33;4.33;;;;;;;;5029642;28;45483;-96
2023/08/22 03:53:33;;;;;;;;;5.00;5.00;;;;;;;;5027257;28;44782;-96
2023/08/22 03:55:58;;;;;;;;;3.67;3.67;;;;;;;;5009838;28;45511;-96
2023/08/22 03:58:24;;;;;;;;;5.00;5.00;;;;;;;;5010928;28;46263;-96
2023/08/22 04:00:50;;;;;;;;;5.00;5.00;;;;;;;;5025910;28;45324;-96
2023/08/22 04:03:15;;;;;;;;;7.33;7.33;;;;;;;;5005986;28;45432;-96
2023/08/22 04:05:42;;;;;;;;;4.00;4.00;;;;;;;;5029179;28;45316;-96
2023/08/22 04:08:07;;;;;;;;;4.00;4.00;;;;;;;;5027389;28;45456;-96
2023/08/22 04:10:33;;;;;;;;;4.00;4.00;;;;;;;;5008164;28;45349;-96
2023/08/22 04:13:00;;;;;;;;;3.33;3.33;;;;;;;;5004920;28;45459;-96
2023/08/22 04:15:26;;;;;;;;;4.00;4.00;;;;;;;;5006226;28;45533;-96
2023/08/22 04:17:54;;;;;;;;;2.00;2.00;;;;;;;;5008592;28;47323;-96
2023/08/22 04:20:19;;;;;;;;;4.67;3.67;;;;;;;;5009262;28;45465;-96
2023/08/22 04:22:45;;;;;;;;;1.00;1.00;;;;;;;;5009889;28;45357;-96
2023/08/22 04:25:10;;;;;;;;;2.00;2.00;;;;;;;;5012613;28;45436;-96
2023/08/22 04:27:35;;;;;;;;;2.00;2.00;;;;;;;;5031253;28;46234;-96
2023/08/22 04:30:01;;;;;;;;;2.67;2.67;;;;;;;;5029977;28;45408;-96
2023/08/22 04:32:26;;;;;;;;;3.00;3.00;;;;;;;;5012468;28;45250;-96
2023/08/22 04:34:52;;;;;;;;;2.00;2.00;;;;;;;;5032965;28;45646;-96
2023/08/22 04:37:17;;;;;;;;;4.67;4.00;;;;;;;;5014596;28;46893;-96
2023/08/22 04:39:42;;;;;;;;;2.67;2.67;;;;;;;;5010141;28;45526;-97
2023/08/22 04:42:08;;;;;;;;;3.00;3.00;;;;;;;;5011371;28;45425;-96
2023/08/22 04:44:33;;;;;;;;;2.67;2.67;;;;;;;;5013039;28;45634;-96
2023/08/22 04:46:58;;;;;;;;;3.00;2.33;;;;;;;;5028230;28;46720;-96
2023/08/22 04:49:24;;;;;;;;;2.00;2.00;;;;;;;;5010865;28;46444;-97
2023/08/22 04:51:49;;;;;;;;;6.00;4.00;;;;;;;;5030019;28;45640;-96
2023/08/22 04:54:15;;;;;;;;;3.00;3.00;;;;;;;;5032233;28;45593;-96
2023/08/22 04:56:40;;;;;;;;;4.00;4.00;;;;;;;;5030914;28;45933;-96
2023/08/22 04:59:05;;;;;;;;;4.00;4.00;;;;;;;;5010553;28;45513;-96
2023/08/22 05:01:31;;;;;;;;;2.00;2.00;;;;;;;;5008063;28;45534;-96
2023/08/22 05:03:56;;;;;;;;;4.00;4.00;;;;;;;;5012981;28;45438;-96
2023/08/22 05:06:22;;;;;;;;;2.67;2.67;;;;;;;;5017350;28;46890;-96
2023/08/22 05:08:52;;;;;;;;;3.00;3.00;;;;;;;;5017464;28;45471;-96
2023/08/22 05:11:33;;;;;;;;;;;;;;;;;;;;;
2023/08/22 05:14:19;;;;;;;;;;;;;;;;;;;;;
2023/08/22 05:16:45;;;;;;;;;3.33;2.00;;;;;;;;5029911;28;75716;-96
2023/08/22 05:19:10;;;;;;;;;3.00;3.00;;;;;;;;5029229;28;45202;-97
2023/08/22 05:21:35;;;;;;;;;2.67;2.67;;;;;;;;5012246;28;45380;-96
2023/08/22 05:24:01;;;;;;;;;3.00;3.00;;;;;;;;5010954;28;45459;-97
2023/08/22 05:26:26;;;;;;;;;3.00;3.00;;;;;;;;5029467;28;46176;-96
2023/08/22 05:28:51;;;;;;;;;0.00;0.00;;;;;;;;5007591;28;45444;-96
2023/08/22 05:31:23;;;;;;;;;2.33;2.33;;;;;;;;5014733;28;45438;-96
2023/08/22 05:33:49;;;;;;;;;1.00;1.00;;;;;;;;5013135;28;45252;-96
2023/08/22 05:36:14;;;;;;;;;2.67;2.67;;;;;;;;5030458;28;46210;-96
2023/08/22 05:38:40;;;;;;;;;2.33;2.33;;;;;;;;5027431;28;45922;-97
2023/08/22 05:41:13;;;;;;;;;2.33;2.33;;;;;;;;5013996;28;45351;-96
2023/08/22 05:43:38;;;;;;;;;4.67;4.67;;;;;;;;5029705;28;45427;-96
2023/08/22 05:46:03;;;;;;;;;4.67;4.67;;;;;;;;5032389;28;46963;-97
2023/08/22 05:48:41;;;;;;;;;;;;;;;;;;;;;
2023/08/22 05:51:15;;;;;;;;;5.00;5.00;;;;;;;;5031303;28;69345;-96
2023/08/22 05:53:40;;;;;;;;;5.00;5.00;;;;;;;;5011735;28;45446;-96
2023/08/22 05:56:06;;;;;;;;;2.00;2.00;;;;;;;;5032295;28;45347;-97
2023/08/22 05:58:33;;;;;;;;;3.67;3.67;;;;;;;;5014599;28;44802;-97
2023/08/22 06:00:59;;;;;;;;;7.00;6.67;;;;;;;;5032458;28;45474;-96
2023/08/22 06:03:24;;;;;;;;;5.33;5.33;;;;;;;;5034862;28;45643;-97
2023/08/22 06:05:49;;;;;;;;;6.33;6.33;;;;;;;;5015351;28;45545;-96
2023/08/22 06:08:15;;;;;;;;;3.67;3.67;;;;;;;;5015038;28;45510;-96
2023/08/22 06:10:46;;;;;;;;;4.00;4.00;;;;;;;;5013892;28;45470;-96
2023/08/22 06:13:17;;;;;;;;;2.00;2.00;;;;;;;;5001259;28;45401;-96
2023/08/22 06:15:51;;;;;;;;;3.00;3.00;;;;;;;;5015620;28;47164;-96
2023/08/22 06:18:31;;;;;;;;;3.00;3.00;;;;;;;;5033322;28;45469;-97
2023/08/22 06:21:00;;;;;;;;;2.00;2.00;;;;;;;;5033308;28;45281;-96
2023/08/22 06:23:26;;;;;;;;;2.00;2.00;;;;;;;;5032252;28;45394;-96
2023/08/22 06:25:51;;;;;;;;;4.00;4.00;;;;;;;;5009731;28;46971;-96
2023/08/22 06:28:17;;;;;;;;;1.67;1.67;;;;;;;;5011591;28;45505;-96
2023/08/22 06:30:46;;;;;;;;;2.00;2.00;;;;;;;;5017640;28;45951;-96
2023/08/22 06:33:15;;;;;;;;;1.00;1.00;;;;;;;;5024508;28;44934;-97
2023/08/22 06:35:52;;;;;;;;;1.00;1.00;;;;;;;;5021532;28;46016;-96
2023/08/22 06:38:17;;;;;;;;;2.00;2.00;;;;;;;;5009290;28;44747;-96
2023/08/22 06:40:48;;;;;;;;;1.00;1.00;;;;;;;;5038224;28;45423;-96
2023/08/22 06:43:18;;;;;;;;;1.33;1.33;;;;;;;;5041398;28;45328;-97
2023/08/22 06:45:46;;;;;;;;;1.67;1.67;;;;;;;;5019387;28;46487;-96
2023/08/22 06:48:12;;;;;;;;;2.33;2.00;;;;;;;;5030790;28;45206;-96
2023/08/22 06:50:38;;;;;;;;;2.00;2.00;;;;;;;;4999606;28;45514;-96
2023/08/22 06:53:03;;;;;;;;;2.00;1.33;;;;;;;;5018174;28;45546;-96
2023/08/22 06:55:29;;;;;;;;;1.00;1.00;;;;;;;;5043350;28;45708;-96
2023/08/22 06:57:57;;;;;;;;;2.00;2.00;;;;;;;;5044240;28;45407;-96
2023/08/22 07:00:26;;;;;;;;;1.00;1.00;;;;;;;;5043616;28;45414;-96
2023/08/22 07:02:55;;;;;;;;;1.00;1.00;;;;;;;;5021982;28;44885;-96
2023/08/22 07:05:22;;;;;;;;;0.00;0.00;;;;;;;;5031677;28;45532;-96
2023/08/22 07:12:57;;;;;;;;;0.33;0.33;;;;;;;;5011750;28;46940;-96
2023/08/22 07:15:22;;;;;;;;;0.00;0.00;;;;;;;;4996011;28;45554;-96
2023/08/22 07:17:48;;;;;;;;;0.00;0.00;;;;;;;;5006264;28;45179;-94
2023/08/22 07:20:33;;;;;;;;;0.00;0.00;;;;;;;;5151834;22;45456;-96
2023/08/22 07:23:42;;;;;;;;;;;;;;;;;;;;;
2023/08/22 07:26:17;;;;;;;;;0.00;0.00;;;;;;;;4973953;28;46264;-94
2023/08/22 08:20:04;;;;;;;;;0.00;0.00;;;;;;;;5080159;22;46647;-96
2023/08/22 08:22:29;;;;;;;;;0.00;0.00;;;;;;;;4983797;28;45282;-96
2023/08/22 08:24:55;;;;;;;;;0.00;0.00;;;;;;;;4979745;28;45178;-96
2023/08/22 08:27:21;;;;;;;;;1.00;1.00;;;;;;;;4986236;28;45217;-92
2023/08/22 08:29:46;;;;;;;;;1.00;1.00;;;;;;;;4996715;28;47002;-94
2023/08/22 08:32:11;;;;;;;;;1.00;1.00;;;;;;;;4994770;28;45655;-95
2023/08/22 08:34:42;;;;;;;;;0.00;0.00;;;;;;;;5001412;28;45348;-95
2023/08/22 08:37:24;;;;;;;;;1.00;1.00;;;;;;;;5012135;28;45170;-94
2023/08/22 08:39:55;;;;;;;;;0.67;0.67;;;;;;;;5021589;28;46597;-93
2023/08/22 08:42:20;;;;;;;;;0.00;0.00;;;;;;;;5005788;28;45305;-95
2023/08/22 08:44:46;;;;;;;;;1.33;1.33;;;;;;;;5008586;28;45334;-96
2023/08/22 08:47:11;;;;;;;;;0.33;0.33;;;;;;;;5005595;28;45538;-96
2023/08/22 08:49:37;;;;;;;;;1.00;1.00;;;;;;;;5008322;28;45335;-96
2023/08/22 08:52:03;;;;;;;;;2.00;2.00;;;;;;;;5008970;28;45500;-96
2023/08/22 08:54:28;;;;;;;;;1.00;1.00;;;;;;;;5025491;28;44662;-95
2023/08/22 08:56:54;;;;;;;;;1.00;1.00;;;;;;;;4999106;28;45457;-96
2023/08/22 08:59:19;;;;;;;;;1.00;1.00;;;;;;;;5021772;28;45409;-96
2023/08/22 09:01:45;;;;;;;;;1.00;1.00;;;;;;;;5007233;28;45331;-96
2023/08/22 09:04:11;;;;;;;;;1.00;1.00;;;;;;;;5014341;28;45463;-96
2023/08/22 09:06:37;;;;;;;;;0.00;0.00;;;;;;;;5006539;28;45434;-96
2023/08/22 09:09:08;;;;;;;;;1.00;1.00;;;;;;;;4999587;28;46570;-96
2023/08/22 09:11:33;;;;;;;;;0.00;0.00;;;;;;;;5007010;28;45367;-96
2023/08/22 09:13:59;;;;;;;;;1.00;1.00;;;;;;;;4995844;28;45216;-95
2023/08/22 09:16:25;;;;;;;;;0.33;0.33;;;;;;;;5009189;22;45455;-95
2023/08/22 09:18:50;;;;;;;;;0.00;0.00;;;;;;;;5013424;28;46412;-95
2023/08/22 09:21:16;;;;;;;;;1.00;1.00;;;;;;;;4982346;28;45548;-96
2023/08/22 09:23:42;;;;;;;;;0.00;0.00;;;;;;;;5001332;28;44879;-96
2023/08/22 09:26:07;;;;;;;;;0.67;0.67;;;;;;;;4973340;28;45314;-96
2023/08/22 09:28:38;;;;;;;;;0.00;0.00;;;;;;;;4984775;28;47220;-96
2023/08/22 09:31:03;;;;;;;;;1.67;1.67;;;;;;;;5002787;28;45782;-96
2023/08/22 09:33:28;;;;;;;;;1.00;1.00;;;;;;;;5002083;28;45371;-96
2023/08/22 09:35:57;;;;;;;;;1.67;1.67;;;;;;;;5000758;28;45402;-95
2023/08/22 09:38:23;;;;;;;;;1.00;1.00;;;;;;;;4993465;28;45438;-96
2023/08/22 09:40:55;;;;;;;;;0.67;0.67;;;;;;;;4999659;28;45162;-96
2023/08/22 09:43:21;;;;;;;;;0.33;0.33;;;;;;;;4998601;28;45301;-95
2023/08/22 09:45:48;;;;;;;;;0.33;0.33;;;;;;;;4995302;28;45403;-95
2023/08/22 09:48:18;;;;;;;;;0.00;0.00;;;;;;;;5003734;28;45327;-95
2023/08/22 09:50:44;;;;;;;;;1.00;1.00;;;;;;;;4973947;28;45392;-95
2023/08/22 09:53:10;;;;;;;;;1.00;1.00;;;;;;;;4988679;28;46683;-95
2023/08/22 09:55:35;;;;;;;;;0.00;0.00;;;;;;;;4990037;28;45345;-95
2023/08/22 09:58:01;;;;;;;;;0.00;0.00;;;;;;;;4998857;28;45412;-96
2023/08/22 10:00:30;;;;;;;;;3.00;3.00;;;;;;;;5011305;28;44731;-95
2023/08/22 10:02:56;;;;;;;;;1.00;1.00;;;;;;;;5008467;28;45153;-95
2023/08/22 10:05:22;;;;;;;;;1.33;1.33;;;;;;;;4995043;28;45552;-96
2023/08/22 10:07:48;;;;;;;;;0.00;0.00;;;;;;;;5013587;28;45341;-95
2023/08/22 10:10:13;;;;;;;;;0.33;0.33;;;;;;;;5014187;28;44695;-95
2023/08/22 10:12:39;;;;;;;;;0.00;0.00;;;;;;;;5002156;28;45369;-95
2023/08/22 10:15:05;;;;;;;;;0.00;0.00;;;;;;;;5008981;28;45439;-96
2023/08/22 10:17:32;;;;;;;;;0.00;0.00;;;;;;;;4998472;28;45527;-95
2023/08/22 10:20:19;;;;;;;;;0.00;0.00;;;;;;;;5003930;28;45471;-96
2023/08/22 10:22:51;;;;;;;;;0.00;0.00;;;;;;;;5014753;28;45374;-96
2023/08/22 10:25:57;;;;;;;;;0.00;0.00;;;;;;;;5015593;28;44779;-96
2023/08/22 10:28:22;;;;;;;;;0.00;0.00;;;;;;;;4929017;28;46259;-96
2023/08/22 10:31:02;;;;;;;;;0.00;0.00;;;;;;;;4933895;28;44718;-96
2023/08/22 10:33:29;;;;;;;;;0.00;0.00;;;;;;;;5058848;22;44584;-96
2023/08/22 10:56:45;;;;;;;;;0.33;0.33;;;;;;;;6005260;22;45918;-95
2023/08/22 10:59:10;;;;;;;;;0.00;0.00;;;;;;;;4989368;28;46267;-92
2023/08/22 11:01:37;;;;;;;;;0.00;0.00;;;;;;;;4963772;28;45507;-95
2023/08/22 11:04:04;;;;;;;;;0.00;0.00;;;;;;;;4980790;28;45539;-96
2023/08/22 11:06:29;;;;;;;;;0.00;0.00;;;;;;;;4983890;28;45518;-94
2023/08/22 11:08:54;;;;;;;;;1.00;1.00;;;;;;;;4963838;28;47147;-95
2023/08/22 11:11:20;;;;;;;;;0.00;0.00;;;;;;;;4983291;28;45499;-91
2023/08/22 11:13:45;;;;;;;;;0.00;0.00;;;;;;;;4994341;28;45419;-91
2023/08/22 11:16:14;;;;;;;;;0.00;0.00;;;;;;;;4996474;28;45303;-93
2023/08/22 11:21:24;;;;;;;;;1.00;1.00;;;;;;;;5006523;28;45140;-94
2023/08/22 11:26:45;;;;;;;;;0.33;0.33;;;;;;;;5012563;28;45341;-95
2023/08/22 11:29:30;;;;;;;;;0.00;0.00;;;;;;;;5018711;28;44715;-92
2023/08/22 11:35:01;;;;;;;;;0.00;0.00;;;;;;;;5514562;22;44708;-95
2023/08/22 11:37:27;;;;;;;;;0.00;0.00;;;;;;;;4991401;28;46951;-92
2023/08/22 11:50:35;;;;;;;;;0.00;0.00;;;;;;;;5028052;22;45891;-96
2023/08/22 11:53:17;;;;;;;;;0.00;0.00;;;;;;;;4976944;28;45539;-95
2023/08/22 11:55:43;;;;;;;;;0.00;0.00;;;;;;;;4986299;28;45566;-96
2023/08/22 12:01:20;;;;;;;;;1.00;1.00;;;;;;;;4557238;22;3319700;31
2023/08/22 12:03:47;;;;;;;;;0.67;0.67;;;;;;;;4950490;28;45364;-96
2023/08/22 12:06:13;;;;;;;;;0.00;0.00;;;;;;;;4835467;28;1980669;-96
2023/08/22 12:08:38;;;;;;;;;1.00;1.00;;;;;;;;4593178;22;7002826;-96
2023/08/22 12:11:03;;;;;;;;;0.00;0.00;;;;;;;;5067530;23;45515;-96
2023/08/22 12:13:39;;;;;;;;;0.00;0.00;;;;;;;;5013502;28;45486;-96
2023/08/22 12:16:04;;;;;;;;;0.00;0.00;;;;;;;;5030056;28;45541;-96
2023/08/22 12:18:32;;;;;;;;;1.00;1.00;;;;;;;;5030680;28;45241;-96
2023/08/22 12:20:58;;;;;;;;;0.67;0.67;;;;;;;;5012804;28;45230;-96
2023/08/22 12:23:23;;;;;;;;;3.00;3.00;;;;;;;;4991591;28;45518;-96
2023/08/22 12:25:48;;;;;;;;;12.33;12.33;;;;;;;;5077644;22;45296;-96
2023/08/22 12:28:16;;;;;;;;;4.00;4.00;;;;;;;;5030964;28;45415;-96
2023/08/22 12:30:44;;;;;;;;;1.00;1.00;;;;;;;;4991461;28;48131;-96
2023/08/22 12:33:09;;;;;;;;;0.67;0.67;;;;;;;;4996409;28;45572;-96
2023/08/22 12:35:36;;;;;;;;;1.00;1.00;;;;;;;;5010261;28;45213;-96
2023/08/22 12:38:12;;;;;;;;;0.67;0.67;;;;;;;;4994593;28;45300;-96
2023/08/22 12:41:07;;;;;;;;;0.33;0.33;;;;;;;;4993690;28;44797;-96
2023/08/22 12:43:38;;;;;;;;;0.67;0.67;;;;;;;;5018654;23;45395;-97
2023/08/22 12:46:25;;;;;;;;;1.00;1.00;;;;;;;;4949697;28;45432;-96
2023/08/22 12:48:50;;;;;;;;;1.00;1.00;;;;;;;;4977267;28;45248;-96
2023/08/22 12:51:18;;;;;;;;;1.33;1.33;;;;;;;;4976958;28;35013;-96
2023/08/22 12:53:43;;;;;;;;;26.00;18.67;;;;;;;;4979908;28;45417;-96
2023/08/22 12:56:08;;;;;;;;;5.67;5.67;;;;;;;;4974129;28;45403;-95
2023/08/22 12:58:34;;;;;;;;;2.00;2.00;;;;;;;;4969640;28;45424;-95
2023/08/22 13:00:59;;;;;;;;;1.00;1.00;;;;;;;;4969739;28;45981;-96
2023/08/22 13:03:25;;;;;;;;;1.00;1.00;;;;;;;;4984407;28;44688;-95
2023/08/22 13:05:54;;;;;;;;;0.00;0.00;;;;;;;;4762308;28;3019419;-96
2023/08/22 13:08:21;;;;;;;;;1.00;1.00;;;;;;;;5382373;23;45845;-96
2023/08/22 15:03:54;;;;;;;;;1.00;1.00;;;;;;;;4991128;28;45499;-96
2023/08/22 15:24:25;;;;;;;;;0.00;0.00;;;;;;;;5194472;22;45688;-92
2023/08/22 15:26:51;;;;;;;;;1.00;1.00;;;;;;;;5014591;28;45750;-92
2023/08/22 15:29:16;;;;;;;;;0.00;0.00;;;;;;;;5007323;28;45819;-93
2023/08/22 15:31:43;;;;;;;;;1.00;1.00;;;;;;;;4993489;28;45599;-94
2023/08/22 15:34:08;;;;;;;;;0.33;0.33;;;;;;;;4992705;28;45535;-93
2023/08/22 15:36:34;;;;;;;;;1.00;1.00;;;;;;;;4976455;28;45551;-93
2023/08/22 15:39:34;;;;;;;;;0.00;0.00;;;;;;;;5014922;28;45458;-96
2023/08/22 15:42:26;;;;;;;;;1.00;1.00;;;;;;;;5045295;28;44750;-96
2023/08/22 15:44:55;;;;;;;;;0.33;0.33;;;;;;;;5001011;28;45321;-96
2023/08/22 15:47:24;;;;;;;;;0.33;0.33;;;;;;;;5017664;28;45520;-96
2023/08/22 15:49:50;;;;;;;;;0.00;0.00;;;;;;;;4980478;28;46925;-96
2023/08/22 15:52:16;;;;;;;;;0.00;0.00;;;;;;;;4993444;28;45388;-96
2023/08/22 15:54:45;;;;;;;;;1.00;1.00;;;;;;;;5001158;28;44826;-96
2023/08/22 15:57:13;;;;;;;;;1.00;1.00;;;;;;;;5001119;28;45639;-96
2023/08/22 15:59:44;;;;;;;;;0.00;0.00;;;;;;;;4991729;28;46364;-96
2023/08/22 16:02:13;;;;;;;;;1.00;1.00;;;;;;;;4996190;28;44921;-96
2023/08/22 16:04:41;;;;;;;;;0.00;0.00;;;;;;;;4997626;28;45583;-96
2023/08/22 16:07:09;;;;;;;;;0.67;0.67;;;;;;;;4984632;28;44966;-96
2023/08/22 16:09:35;;;;;;;;;0.33;0.33;;;;;;;;4983295;28;45665;-96
2023/08/22 16:12:02;;;;;;;;;0.67;0.67;;;;;;;;5017804;28;45572;-96
2023/08/22 16:14:30;;;;;;;;;0.33;0.33;;;;;;;;4996361;28;44799;-96
2023/08/22 16:16:58;;;;;;;;;1.00;1.00;;;;;;;;4996140;28;45373;-96
2023/08/22 16:19:25;;;;;;;;;0.67;0.67;;;;;;;;5001351;28;47559;-96
2023/08/22 16:21:52;;;;;;;;;0.00;0.00;;;;;;;;5005494;28;45495;-96
2023/08/22 16:24:23;;;;;;;;;0.00;0.00;;;;;;;;5016606;28;44715;-96
2023/08/22 16:26:49;;;;;;;;;0.33;0.33;;;;;;;;5019666;28;39420;-96
2023/08/22 16:29:15;;;;;;;;;0.00;0.00;;;;;;;;5005164;28;28543;-96
2023/08/22 16:31:44;;;;;;;;;1.00;1.00;;;;;;;;5020906;28;27774;-96
2023/08/22 16:34:10;;;;;;;;;1.00;1.00;;;;;;;;5005050;28;27800;-96
2023/08/22 16:36:46;;;;;;;;;0.67;0.67;;;;;;;;5020570;28;28031;-96
2023/08/22 16:39:33;;;;;;;;;0.00;0.00;;;;;;;;5032296;28;27889;-96
2023/08/22 16:42:01;;;;;;;;;0.00;0.00;;;;;;;;5022093;28;45242;-96
2023/08/22 16:44:26;;;;;;;;;0.00;0.00;;;;;;;;4989661;28;45474;-96
2023/08/22 16:46:59;;;;;;;;;0.00;0.00;;;;;;;;5000573;28;44965;-96
2023/08/22 16:49:27;;;;;;;;;0.00;0.00;;;;;;;;5005462;28;45754;-96
2023/08/22 16:51:53;;;;;;;;;0.33;0.33;;;;;;;;5006226;28;44850;-96
2023/08/22 16:54:20;;;;;;;;;0.00;0.00;;;;;;;;5002073;28;44843;-96
2023/08/22 16:56:47;;;;;;;;;0.00;0.00;;;;;;;;4989579;28;45678;-96
2023/08/22 16:59:19;;;;;;;;;1.00;1.00;;;;;;;;5021564;28;45749;-96
2023/08/22 17:01:59;;;;;;;;;1.00;1.00;;;;;;;;4988418;28;44772;-96
2023/08/22 17:04:31;;;;;;;;;0.00;0.00;;;;;;;;5005184;28;45289;-96
2023/08/22 17:06:57;;;;;;;;;0.00;0.00;;;;;;;;5015955;28;45439;-96
2023/08/22 17:09:29;;;;;;;;;0.00;0.00;;;;;;;;5004709;28;45430;-96
2023/08/22 17:12:05;;;;;;;;;1.00;1.00;;;;;;;;5006772;28;45187;-96
2023/08/22 17:14:42;;;;;;;;;1.00;1.00;;;;;;;;5005644;28;44756;-96
2023/08/22 17:17:15;;;;;;;;;0.00;0.00;;;;;;;;5012900;28;44863;-96
2023/08/22 17:19:47;;;;;;;;;0.00;0.00;;;;;;;;5021844;28;46527;-96
2023/08/22 17:22:17;;;;;;;;;0.00;0.00;;;;;;;;4984570;28;45447;-96
2023/08/22 17:24:43;;;;;;;;;0.00;0.00;;;;;;;;5003534;28;44819;-96
2023/08/22 17:27:09;;;;;;;;;0.00;0.00;;;;;;;;5003958;28;44862;-96
2023/08/22 17:29:38;;;;;;;;;1.00;1.00;;;;;;;;4986208;28;45506;-96
2023/08/22 17:32:09;;;;;;;;;0.00;0.00;;;;;;;;4992095;28;45154;-96
2023/08/22 17:34:36;;;;;;;;;0.00;0.00;;;;;;;;5020965;28;44652;-96
2023/08/22 17:37:08;;;;;;;;;0.00;0.00;;;;;;;;5019133;28;45332;-96
2023/08/22 17:39:34;;;;;;;;;0.00;0.00;;;;;;;;5001314;28;47599;-96
2023/08/22 17:41:59;;;;;;;;;0.00;0.00;;;;;;;;5019203;28;44782;-96
2023/08/22 17:44:25;;;;;;;;;0.00;0.00;;;;;;;;5018978;28;45162;-96
2023/08/22 17:46:53;;;;;;;;;0.00;0.00;;;;;;;;4991650;28;45234;-96
2023/08/22 17:49:19;;;;;;;;;1.00;1.00;;;;;;;;5016202;28;45706;-96
2023/08/22 17:51:46;;;;;;;;;2.00;1.00;;;;;;;;4991537;28;44744;-96
2023/08/22 17:54:19;;;;;;;;;1.00;1.00;;;;;;;;5019792;28;44705;-96
2023/08/22 17:56:49;;;;;;;;;1.00;1.00;;;;;;;;5002783;28;44974;-96
2023/08/22 17:59:15;;;;;;;;;0.00;0.00;;;;;;;;5001958;28;46693;-96
2023/08/22 18:01:42;;;;;;;;;1.00;1.00;;;;;;;;5002421;28;44586;-96
2023/08/22 18:04:08;;;;;;;;;1.00;1.00;;;;;;;;5001258;28;44738;-96
2023/08/22 18:06:36;;;;;;;;;2.00;2.00;;;;;;;;4975553;28;44879;-96
2023/08/22 18:09:05;;;;;;;;;0.33;0.33;;;;;;;;4997657;28;45442;-96
2023/08/22 18:11:35;;;;;;;;;1.00;1.00;;;;;;;;5002993;28;45028;-96
2023/08/22 18:14:01;;;;;;;;;1.00;1.00;;;;;;;;4985820;28;44728;-96
2023/08/22 18:16:42;;;;;;;;;1.00;1.00;;;;;;;;5005234;28;44917;-96
2023/08/22 18:19:12;;;;;;;;;0.67;0.67;;;;;;;;5003347;28;45407;-96
2023/08/22 18:21:45;;;;;;;;;2.00;2.00;;;;;;;;5023049;28;44695;-96
2023/08/22 18:24:10;;;;;;;;;2.00;2.00;;;;;;;;4985916;28;45612;-96
2023/08/22 18:26:37;;;;;;;;;0.67;0.67;;;;;;;;5001256;28;45365;-96
2023/08/22 18:37:08;;;;;;;;;0.00;0.00;;;;;;;;5032400;22;45781;-95
2023/08/22 18:39:33;;;;;;;;;0.00;0.00;;;;;;;;5011218;28;44888;-94
2023/08/22 18:41:58;;;;;;;;;0.67;0.67;;;;;;;;4994027;28;35618;-94
2023/08/22 18:44:23;;;;;;;;;0.00;0.00;;;;;;;;5009305;28;42188;-96
2023/08/22 18:50:08;;;;;;;;;;;;;;;;;;;;;
2023/08/22 18:52:33;;;;;;;;;0.00;0.00;;;;;;;;4989499;28;72837;-92
2023/08/22 18:54:59;;;;;;;;;1.33;1.33;;;;;;;;4992019;28;45436;-92